sensor_id;sensor_type;location;lat;lon;timestamp;pressure;altitude;pressure_sealevel;temperature;humidity
18022;BME280;9136;48.822;7.966;2022-12-18T00:00:55;101455.66;;;-6.02;100.00
18022;BME280;9136;48.822;7.966;2022-12-18T00:03:56;101486.78;;;-5.79;100.00
18022;BME280;9136;48.822;7.966;2022-12-18T00:06:54;101480.78;;;-5.95;100.00
18022;BME280;9136;48.822;7.966;2022-12-18T00:09:45;101452.69;;;-6.10;100.00
18022;BME280;9136;48.822;7.966;2022-12-18T00:12:35;101456.63;;;-5.84;100.00
18022;BME280;9136;48.822;7.966;2022-12-18T00:15:39;101478.94;;;-5.82;100.00
18022;BME280;9136;48.822;7.966;2022-12-18T00:18:27;101448.56;;;-5.92;100.00
18022;BME280;9136;48.822;7.966;2022-12-18T00:21:17;101458.31;;;-5.85;100.00
18022;BME280;9136;48.822;7.966;2022-12-18T00:24:21;101476.22;;;-5.85;100.00
18022;BME280;9136;48.822;7.966;2022-12-18T00:27:13;101487.41;;;-5.83;100.00
18022;BME280;9136;48.822;7.966;2022-12-18T00:30:01;101441.66;;;-6.09;100.00
18022;BME280;9136;48.822;7.966;2022-12-18T00:33:00;101472.94;;;-5.82;100.00
18022;BME280;9136;48.822;7.966;2022-12-18T00:35:50;101450.47;;;-6.04;100.00
18022;BME280;9136;48.822;7.966;2022-12-18T00:38:40;101454.63;;;-6.06;100.00
18022;BME280;9136;48.822;7.966;2022-12-18T00:41:49;101444.41;;;-6.06;100.00
18022;BME280;9136;48.822;7.966;2022-12-18T00:44:52;101434.63;;;-6.13;100.00
18022;BME280;9136;48.822;7.966;2022-12-18T00:47:48;101461.59;;;-6.03;100.00
18022;BME280;9136;48.822;7.966;2022-12-18T00:50:41;101430.16;;;-6.17;100.00
18022;BME280;9136;48.822;7.966;2022-12-18T00:53:38;101434.28;;;-6.36;100.00
18022;BME280;9136;48.822;7.966;2022-12-18T00:56:32;101425.09;;;-6.32;100.00
18022;BME280;9136;48.822;7.966;2022-12-18T00:59:22;101430.84;;;-6.20;100.00
18022;BME280;9136;48.822;7.966;2022-12-18T01:02:43;101443.91;;;-6.15;100.00
18022;BME280;9136;48.822;7.966;2022-12-18T01:05:21;101470.94;;;-6.04;100.00
18022;BME280;9136;48.822;7.966;2022-12-18T01:08:12;101471.09;;;-6.17;100.00
18022;BME280;9136;48.822;7.966;2022-12-18T01:11:08;101494.75;;;-6.05;100.00
18022;BME280;9136;48.822;7.966;2022-12-18T01:14:00;101479.63;;;-6.17;100.00
18022;BME280;9136;48.822;7.966;2022-12-18T01:16:50;101456.19;;;-6.24;100.00
18022;BME280;9136;48.822;7.966;2022-12-18T01:19:41;101479.44;;;-6.20;100.00
18022;BME280;9136;48.822;7.966;2022-12-18T01:22:35;101468.63;;;-6.30;100.00
18022;BME280;9136;48.822;7.966;2022-12-18T01:25:35;101472.41;;;-6.24;100.00
18022;BME280;9136;48.822;7.966;2022-12-18T01:28:38;101453.50;;;-6.42;100.00
18022;BME280;9136;48.822;7.966;2022-12-18T01:31:33;101495.44;;;-6.24;100.00
18022;BME280;9136;48.822;7.966;2022-12-18T01:34:30;101453.66;;;-6.39;100.00
18022;BME280;9136;48.822;7.966;2022-12-18T01:37:24;101466.81;;;-6.33;100.00
18022;BME280;9136;48.822;7.966;2022-12-18T01:40:12;101477.84;;;-6.18;100.00
18022;BME280;9136;48.822;7.966;2022-12-18T01:43:12;101486.75;;;-6.11;100.00
18022;BME280;9136;48.822;7.966;2022-12-18T01:46:07;101478.66;;;-6.19;100.00
18022;BME280;9136;48.822;7.966;2022-12-18T01:49:00;101484.63;;;-6.18;100.00
18022;BME280;9136;48.822;7.966;2022-12-18T01:51:57;101469.72;;;-6.27;100.00
18022;BME280;9136;48.822;7.966;2022-12-18T01:54:54;101463.22;;;-6.37;100.00
18022;BME280;9136;48.822;7.966;2022-12-18T01:57:52;101486.97;;;-6.23;100.00
18022;BME280;9136;48.822;7.966;2022-12-18T02:00:47;101461.41;;;-6.38;100.00
18022;BME280;9136;48.822;7.966;2022-12-18T02:03:36;101483.53;;;-6.23;100.00
18022;BME280;9136;48.822;7.966;2022-12-18T02:06:29;101489.59;;;-6.21;100.00
18022;BME280;9136;48.822;7.966;2022-12-18T02:09:50;101510.06;;;-6.21;100.00
18022;BME280;9136;48.822;7.966;2022-12-18T02:12:56;101482.75;;;-6.37;100.00
18022;BME280;9136;48.822;7.966;2022-12-18T02:16:04;101483.38;;;-6.41;100.00
18022;BME280;9136;48.822;7.966;2022-12-18T02:19:00;101487.34;;;-6.31;100.00
18022;BME280;9136;48.822;7.966;2022-12-18T02:22:07;101467.63;;;-6.49;100.00
18022;BME280;9136;48.822;7.966;2022-12-18T02:25:13;101475.66;;;-6.57;100.00
18022;BME280;9136;48.822;7.966;2022-12-18T02:28:09;101491.59;;;-6.47;100.00
18022;BME280;9136;48.822;7.966;2022-12-18T02:31:11;101512.81;;;-6.48;100.00
18022;BME280;9136;48.822;7.966;2022-12-18T02:34:11;101475.75;;;-6.71;100.00
18022;BME280;9136;48.822;7.966;2022-12-18T02:37:04;101479.88;;;-6.58;100.00
18022;BME280;9136;48.822;7.966;2022-12-18T02:39:57;101469.56;;;-6.59;100.00
18022;BME280;9136;48.822;7.966;2022-12-18T02:42:50;101500.03;;;-6.48;100.00
18022;BME280;9136;48.822;7.966;2022-12-18T02:45:50;101461.75;;;-6.77;100.00
18022;BME280;9136;48.822;7.966;2022-12-18T02:48:40;101459.03;;;-6.66;100.00
18022;BME280;9136;48.822;7.966;2022-12-18T02:51:35;101473.09;;;-6.43;100.00
18022;BME280;9136;48.822;7.966;2022-12-18T02:54:38;101492.59;;;-6.28;100.00
18022;BME280;9136;48.822;7.966;2022-12-18T02:57:35;101505.31;;;-6.30;100.00
18022;BME280;9136;48.822;7.966;2022-12-18T03:00:31;101498.13;;;-6.52;100.00
18022;BME280;9136;48.822;7.966;2022-12-18T03:03:39;101511.53;;;-6.56;100.00
18022;BME280;9136;48.822;7.966;2022-12-18T03:06:32;101490.19;;;-6.56;100.00
18022;BME280;9136;48.822;7.966;2022-12-18T03:09:29;101475.41;;;-6.62;100.00
18022;BME280;9136;48.822;7.966;2022-12-18T03:12:28;101517.41;;;-6.42;100.00
18022;BME280;9136;48.822;7.966;2022-12-18T03:15:22;101468.34;;;-6.66;100.00
18022;BME280;9136;48.822;7.966;2022-12-18T03:18:33;101499.72;;;-6.54;100.00
18022;BME280;9136;48.822;7.966;2022-12-18T03:21:42;101513.31;;;-6.55;100.00
18022;BME280;9136;48.822;7.966;2022-12-18T03:24:33;101496.81;;;-6.60;100.00
18022;BME280;9136;48.822;7.966;2022-12-18T03:27:31;101508.72;;;-6.75;100.00
18022;BME280;9136;48.822;7.966;2022-12-18T03:30:26;101481.94;;;-6.82;100.00
18022;BME280;9136;48.822;7.966;2022-12-18T03:33:17;101507.59;;;-6.66;100.00
18022;BME280;9136;48.822;7.966;2022-12-18T03:36:11;101528.72;;;-6.53;100.00
18022;BME280;9136;48.822;7.966;2022-12-18T03:39:09;101472.50;;;-6.68;100.00
18022;BME280;9136;48.822;7.966;2022-12-18T03:42:04;101480.69;;;-6.59;100.00
18022;BME280;9136;48.822;7.966;2022-12-18T03:44:59;101498.66;;;-6.43;100.00
18022;BME280;9136;48.822;7.966;2022-12-18T03:47:59;101525.69;;;-6.31;100.00
18022;BME280;9136;48.822;7.966;2022-12-18T03:51:01;101511.53;;;-6.56;100.00
18022;BME280;9136;48.822;7.966;2022-12-18T03:53:58;101492.50;;;-6.61;100.00
18022;BME280;9136;48.822;7.966;2022-12-18T03:57:05;101521.66;;;-6.43;100.00
18022;BME280;9136;48.822;7.966;2022-12-18T04:00:03;101514.41;;;-6.35;100.00
18022;BME280;9136;48.822;7.966;2022-12-18T04:03:07;101476.16;;;-6.48;100.00
18022;BME280;9136;48.822;7.966;2022-12-18T04:05:57;101492.56;;;-6.45;100.00
18022;BME280;9136;48.822;7.966;2022-12-18T04:08:49;101496.88;;;-6.58;100.00
18022;BME280;9136;48.822;7.966;2022-12-18T04:11:37;101471.09;;;-6.78;100.00
18022;BME280;9136;48.822;7.966;2022-12-18T04:14:33;101443.47;;;-6.85;100.00
18022;BME280;9136;48.822;7.966;2022-12-18T04:17:27;101487.09;;;-6.51;100.00
18022;BME280;9136;48.822;7.966;2022-12-18T04:20:35;101470.72;;;-6.54;100.00
18022;BME280;9136;48.822;7.966;2022-12-18T04:23:25;101478.47;;;-6.53;100.00
18022;BME280;9136;48.822;7.966;2022-12-18T04:26:26;101471.53;;;-6.70;100.00
18022;BME280;9136;48.822;7.966;2022-12-18T04:29:23;101465.97;;;-6.78;100.00
18022;BME280;9136;48.822;7.966;2022-12-18T04:32:15;101447.41;;;-6.75;100.00
18022;BME280;9136;48.822;7.966;2022-12-18T04:35:06;101473.81;;;-6.60;100.00
18022;BME280;9136;48.822;7.966;2022-12-18T04:38:02;101475.47;;;-6.60;100.00
18022;BME280;9136;48.822;7.966;2022-12-18T04:40:51;101490.53;;;-6.50;100.00
18022;BME280;9136;48.822;7.966;2022-12-18T04:43:44;101470.91;;;-6.66;100.00
18022;BME280;9136;48.822;7.966;2022-12-18T04:46:41;101486.44;;;-6.63;100.00
18022;BME280;9136;48.822;7.966;2022-12-18T04:49:36;101480.78;;;-6.72;100.00
18022;BME280;9136;48.822;7.966;2022-12-18T04:52:27;101513.56;;;-6.65;100.00
18022;BME280;9136;48.822;7.966;2022-12-18T04:55:17;101510.81;;;-6.68;100.00
18022;BME280;9136;48.822;7.966;2022-12-18T04:58:05;101479.97;;;-6.86;100.00
18022;BME280;9136;48.822;7.966;2022-12-18T05:00:58;101490.84;;;-6.75;100.00
18022;BME280;9136;48.822;7.966;2022-12-18T05:04:02;101498.31;;;-6.64;100.00
18022;BME280;9136;48.822;7.966;2022-12-18T05:06:52;101481.91;;;-6.67;100.00
18022;BME280;9136;48.822;7.966;2022-12-18T05:09:43;101484.03;;;-6.60;100.00
18022;BME280;9136;48.822;7.966;2022-12-18T05:12:33;101506.91;;;-6.47;100.00
18022;BME280;9136;48.822;7.966;2022-12-18T05:15:50;101495.22;;;-6.43;100.00
18022;BME280;9136;48.822;7.966;2022-12-18T05:18:39;101500.75;;;-6.36;100.00
18022;BME280;9136;48.822;7.966;2022-12-18T05:21:33;101494.84;;;-6.49;100.00
18022;BME280;9136;48.822;7.966;2022-12-18T05:24:30;101511.00;;;-6.50;100.00
18022;BME280;9136;48.822;7.966;2022-12-18T05:27:22;101500.25;;;-6.59;100.00
18022;BME280;9136;48.822;7.966;2022-12-18T05:30:13;101490.91;;;-6.59;100.00
18022;BME280;9136;48.822;7.966;2022-12-18T05:33:12;101474.09;;;-6.70;100.00
18022;BME280;9136;48.822;7.966;2022-12-18T05:36:05;101500.31;;;-6.58;100.00
18022;BME280;9136;48.822;7.966;2022-12-18T05:39:03;101495.56;;;-6.52;100.00
18022;BME280;9136;48.822;7.966;2022-12-18T05:41:54;101500.25;;;-6.45;100.00
18022;BME280;9136;48.822;7.966;2022-12-18T05:44:44;101522.53;;;-6.42;100.00
18022;BME280;9136;48.822;7.966;2022-12-18T05:47:32;101508.00;;;-6.58;100.00
18022;BME280;9136;48.822;7.966;2022-12-18T05:50:21;101480.09;;;-6.84;100.00
18022;BME280;9136;48.822;7.966;2022-12-18T05:53:17;101500.97;;;-6.62;100.00
18022;BME280;9136;48.822;7.966;2022-12-18T05:56:07;101514.09;;;-6.71;100.00
18022;BME280;9136;48.822;7.966;2022-12-18T05:58:59;101496.38;;;-6.82;100.00
18022;BME280;9136;48.822;7.966;2022-12-18T06:01:51;101487.06;;;-6.82;100.00
18022;BME280;9136;48.822;7.966;2022-12-18T06:04:39;101495.22;;;-6.87;100.00
18022;BME280;9136;48.822;7.966;2022-12-18T06:07:31;101506.84;;;-6.78;100.00
18022;BME280;9136;48.822;7.966;2022-12-18T06:10:20;101513.66;;;-6.64;100.00
18022;BME280;9136;48.822;7.966;2022-12-18T06:13:10;101549.41;;;-6.49;100.00
18022;BME280;9136;48.822;7.966;2022-12-18T06:16:07;101550.63;;;-6.57;100.00
18022;BME280;9136;48.822;7.966;2022-12-18T06:18:57;101545.44;;;-6.58;100.00
18022;BME280;9136;48.822;7.966;2022-12-18T06:21:51;101564.84;;;-6.47;100.00
18022;BME280;9136;48.822;7.966;2022-12-18T06:24:51;101550.31;;;-6.63;100.00
18022;BME280;9136;48.822;7.966;2022-12-18T06:27:42;101573.22;;;-6.50;100.00
18022;BME280;9136;48.822;7.966;2022-12-18T06:30:30;101543.59;;;-6.76;100.00
18022;BME280;9136;48.822;7.966;2022-12-18T06:33:34;101548.63;;;-6.63;100.00
18022;BME280;9136;48.822;7.966;2022-12-18T06:36:24;101539.19;;;-6.49;100.00
18022;BME280;9136;48.822;7.966;2022-12-18T06:39:15;101560.59;;;-6.47;100.00
18022;BME280;9136;48.822;7.966;2022-12-18T06:42:03;101535.03;;;-6.76;100.00
18022;BME280;9136;48.822;7.966;2022-12-18T06:44:55;101564.41;;;-6.70;100.00
18022;BME280;9136;48.822;7.966;2022-12-18T06:47:43;101571.34;;;-6.67;100.00
18022;BME280;9136;48.822;7.966;2022-12-18T06:50:34;101575.16;;;-6.75;100.00
18022;BME280;9136;48.822;7.966;2022-12-18T06:53:25;101549.16;;;-6.83;100.00
18022;BME280;9136;48.822;7.966;2022-12-18T06:56:17;101556.19;;;-6.79;100.00
18022;BME280;9136;48.822;7.966;2022-12-18T06:59:05;101566.50;;;-6.77;100.00
18022;BME280;9136;48.822;7.966;2022-12-18T07:01:54;101574.53;;;-6.71;100.00
18022;BME280;9136;48.822;7.966;2022-12-18T07:04:47;101585.25;;;-6.77;100.00
18022;BME280;9136;48.822;7.966;2022-12-18T07:07:37;101574.44;;;-6.73;100.00
18022;BME280;9136;48.822;7.966;2022-12-18T07:10:25;101548.88;;;-7.02;100.00
18022;BME280;9136;48.822;7.966;2022-12-18T07:13:15;101563.31;;;-6.88;100.00
18022;BME280;9136;48.822;7.966;2022-12-18T07:16:05;101543.56;;;-7.05;100.00
18022;BME280;9136;48.822;7.966;2022-12-18T07:19:11;101581.13;;;-6.89;100.00
18022;BME280;9136;48.822;7.966;2022-12-18T07:22:01;101590.72;;;-6.85;100.00
18022;BME280;9136;48.822;7.966;2022-12-18T07:24:54;101571.22;;;-6.98;100.00
18022;BME280;9136;48.822;7.966;2022-12-18T07:27:45;101569.94;;;-6.92;100.00
18022;BME280;9136;48.822;7.966;2022-12-18T07:30:33;101576.19;;;-6.86;100.00
18022;BME280;9136;48.822;7.966;2022-12-18T07:33:21;101570.72;;;-6.78;100.00
18022;BME280;9136;48.822;7.966;2022-12-18T07:36:12;101595.06;;;-6.84;100.00
18022;BME280;9136;48.822;7.966;2022-12-18T07:39:02;101577.06;;;-7.01;100.00
18022;BME280;9136;48.822;7.966;2022-12-18T07:41:53;101588.53;;;-6.94;100.00
18022;BME280;9136;48.822;7.966;2022-12-18T07:44:57;101580.69;;;-6.82;100.00
18022;BME280;9136;48.822;7.966;2022-12-18T07:47:44;101580.06;;;-6.78;100.00
18022;BME280;9136;48.822;7.966;2022-12-18T07:50:34;101576.00;;;-6.89;100.00
18022;BME280;9136;48.822;7.966;2022-12-18T07:53:24;101612.50;;;-6.77;100.00
18022;BME280;9136;48.822;7.966;2022-12-18T07:56:12;101619.34;;;-6.76;100.00
18022;BME280;9136;48.822;7.966;2022-12-18T07:59:15;101607.66;;;-6.73;100.00
18022;BME280;9136;48.822;7.966;2022-12-18T08:02:03;101598.66;;;-6.66;100.00
18022;BME280;9136;48.822;7.966;2022-12-18T08:04:53;101576.22;;;-6.72;100.00
18022;BME280;9136;48.822;7.966;2022-12-18T08:07:44;101598.78;;;-6.65;100.00
18022;BME280;9136;48.822;7.966;2022-12-18T08:10:34;101619.69;;;-6.42;100.00
18022;BME280;9136;48.822;7.966;2022-12-18T08:13:25;101612.63;;;-6.46;100.00
18022;BME280;9136;48.822;7.966;2022-12-18T08:16:29;101616.06;;;-6.31;100.00
18022;BME280;9136;48.822;7.966;2022-12-18T08:19:21;101574.63;;;-6.55;100.00
18022;BME280;9136;48.822;7.966;2022-12-18T08:25:47;101600.00;;;-6.28;100.00
18022;BME280;9136;48.822;7.966;2022-12-18T08:29:00;101569.34;;;-6.43;100.00
18022;BME280;9136;48.822;7.966;2022-12-18T08:57:47;101575.69;;;-5.91;100.00
18022;BME280;9136;48.822;7.966;2022-12-18T09:01:02;101561.69;;;-5.97;100.00
18022;BME280;9136;48.822;7.966;2022-12-18T09:08:08;101532.47;;;-6.17;100.00
18022;BME280;9136;48.822;7.966;2022-12-18T09:11:14;101545.41;;;-6.29;100.00
18022;BME280;9136;48.822;7.966;2022-12-18T09:14:29;101570.91;;;-6.30;100.00
18022;BME280;9136;48.822;7.966;2022-12-18T09:17:34;101565.19;;;-6.26;100.00
18022;BME280;9136;48.822;7.966;2022-12-18T09:24:47;101610.56;;;-5.93;100.00
18022;BME280;9136;48.822;7.966;2022-12-18T09:31:38;101623.09;;;-5.81;100.00
18022;BME280;9136;48.822;7.966;2022-12-18T09:34:55;101611.91;;;-5.83;100.00
18022;BME280;9136;48.822;7.966;2022-12-18T09:38:22;101616.38;;;-6.10;100.00
18022;BME280;9136;48.822;7.966;2022-12-18T09:41:57;101590.13;;;-6.22;100.00
18022;BME280;9136;48.822;7.966;2022-12-18T09:45:11;101611.56;;;-5.89;100.00
18022;BME280;9136;48.822;7.966;2022-12-18T09:48:11;101620.22;;;-5.87;100.00
18022;BME280;9136;48.822;7.966;2022-12-18T09:51:03;101613.19;;;-5.91;100.00
18022;BME280;9136;48.822;7.966;2022-12-18T09:57:53;101647.38;;;-5.74;100.00
18022;BME280;9136;48.822;7.966;2022-12-18T10:00:47;101606.22;;;-5.94;100.00
18022;BME280;9136;48.822;7.966;2022-12-18T10:03:37;101616.81;;;-5.71;100.00
18022;BME280;9136;48.822;7.966;2022-12-18T10:06:31;101640.72;;;-5.56;100.00
18022;BME280;9136;48.822;7.966;2022-12-18T10:09:28;101583.53;;;-5.71;100.00
18022;BME280;9136;48.822;7.966;2022-12-18T10:12:25;101606.94;;;-5.65;100.00
18022;BME280;9136;48.822;7.966;2022-12-18T10:15:23;101586.41;;;-5.98;100.00
18022;BME280;9136;48.822;7.966;2022-12-18T10:18:22;101624.50;;;-5.71;100.00
18022;BME280;9136;48.822;7.966;2022-12-18T10:21:18;101600.88;;;-5.82;100.00
18022;BME280;9136;48.822;7.966;2022-12-18T10:24:17;101577.81;;;-5.67;100.00
18022;BME280;9136;48.822;7.966;2022-12-18T10:27:15;101592.06;;;-5.56;100.00
18022;BME280;9136;48.822;7.966;2022-12-18T10:30:12;101600.41;;;-5.44;100.00
18022;BME280;9136;48.822;7.966;2022-12-18T10:33:01;101632.69;;;-5.15;100.00
18022;BME280;9136;48.822;7.966;2022-12-18T10:36:00;101610.44;;;-5.16;100.00
18022;BME280;9136;48.822;7.966;2022-12-18T10:38:53;101600.34;;;-4.97;100.00
18022;BME280;9136;48.822;7.966;2022-12-18T10:41:44;101569.84;;;-5.08;100.00
18022;BME280;9136;48.822;7.966;2022-12-18T10:44:34;101564.63;;;-4.94;100.00
18022;BME280;9136;48.822;7.966;2022-12-18T10:47:22;101568.53;;;-4.84;100.00
18022;BME280;9136;48.822;7.966;2022-12-18T10:50:23;101570.81;;;-4.90;100.00
18022;BME280;9136;48.822;7.966;2022-12-18T10:53:18;101612.56;;;-4.58;100.00
18022;BME280;9136;48.822;7.966;2022-12-18T10:56:08;101585.13;;;-4.77;100.00
18022;BME280;9136;48.822;7.966;2022-12-18T10:59:00;101567.31;;;-4.74;100.00
18022;BME280;9136;48.822;7.966;2022-12-18T11:01:57;101568.50;;;-4.51;100.00
18022;BME280;9136;48.822;7.966;2022-12-18T11:04:51;101581.03;;;-4.40;100.00
18022;BME280;9136;48.822;7.966;2022-12-18T11:07:50;101562.13;;;-4.42;100.00
18022;BME280;9136;48.822;7.966;2022-12-18T11:10:46;101551.53;;;-4.66;100.00
18022;BME280;9136;48.822;7.966;2022-12-18T11:13:36;101583.47;;;-4.43;100.00
18022;BME280;9136;48.822;7.966;2022-12-18T11:16:24;101534.78;;;-4.59;100.00
18022;BME280;9136;48.822;7.966;2022-12-18T11:19:31;101550.69;;;-4.48;100.00
18022;BME280;9136;48.822;7.966;2022-12-18T11:22:23;101578.03;;;-4.31;100.00
18022;BME280;9136;48.822;7.966;2022-12-18T11:25:19;101558.69;;;-4.42;100.00
18022;BME280;9136;48.822;7.966;2022-12-18T11:28:25;101571.50;;;-4.42;100.00
18022;BME280;9136;48.822;7.966;2022-12-18T11:31:24;101576.50;;;-4.27;100.00
18022;BME280;9136;48.822;7.966;2022-12-18T11:34:19;101558.91;;;-4.38;100.00
18022;BME280;9136;48.822;7.966;2022-12-18T11:37:14;101543.06;;;-4.47;100.00
18022;BME280;9136;48.822;7.966;2022-12-18T11:40:09;101565.41;;;-4.44;100.00
18022;BME280;9136;48.822;7.966;2022-12-18T11:43:07;101549.69;;;-4.34;100.00
18022;BME280;9136;48.822;7.966;2022-12-18T11:46:01;101537.72;;;-4.51;100.00
18022;BME280;9136;48.822;7.966;2022-12-18T11:48:55;101571.59;;;-4.23;100.00
18022;BME280;9136;48.822;7.966;2022-12-18T11:52:01;101580.25;;;-4.03;100.00
18022;BME280;9136;48.822;7.966;2022-12-18T11:54:52;101539.34;;;-4.18;100.00
18022;BME280;9136;48.822;7.966;2022-12-18T11:57:51;101528.78;;;-4.24;100.00
18022;BME280;9136;48.822;7.966;2022-12-18T12:00:53;101539.50;;;-4.15;100.00
18022;BME280;9136;48.822;7.966;2022-12-18T12:04:02;101529.50;;;-4.09;100.00
18022;BME280;9136;48.822;7.966;2022-12-18T12:07:10;101526.56;;;-4.16;100.00
18022;BME280;9136;48.822;7.966;2022-12-18T12:10:09;101545.34;;;-4.17;100.00
18022;BME280;9136;48.822;7.966;2022-12-18T12:13:30;101527.44;;;-3.98;100.00
18022;BME280;9136;48.822;7.966;2022-12-18T12:16:27;101521.88;;;-4.07;100.00
18022;BME280;9136;48.822;7.966;2022-12-18T12:19:36;101510.16;;;-4.20;100.00
18022;BME280;9136;48.822;7.966;2022-12-18T12:22:37;101509.34;;;-4.19;100.00
18022;BME280;9136;48.822;7.966;2022-12-18T12:25:38;101540.44;;;-3.95;100.00
18022;BME280;9136;48.822;7.966;2022-12-18T12:28:41;101524.69;;;-4.03;100.00
18022;BME280;9136;48.822;7.966;2022-12-18T12:31:55;101542.78;;;-4.17;100.00
18022;BME280;9136;48.822;7.966;2022-12-18T12:35:15;101515.91;;;-4.43;100.00
18022;BME280;9136;48.822;7.966;2022-12-18T12:38:10;101531.50;;;-4.39;100.00
18022;BME280;9136;48.822;7.966;2022-12-18T12:41:04;101551.00;;;-4.42;100.00
18022;BME280;9136;48.822;7.966;2022-12-18T12:44:13;101534.94;;;-4.38;100.00
18022;BME280;9136;48.822;7.966;2022-12-18T12:47:12;101535.06;;;-4.35;100.00
18022;BME280;9136;48.822;7.966;2022-12-18T12:50:13;101547.03;;;-4.18;100.00
18022;BME280;9136;48.822;7.966;2022-12-18T12:53:06;101522.41;;;-4.32;100.00
18022;BME280;9136;48.822;7.966;2022-12-18T12:55:59;101522.84;;;-4.23;100.00
18022;BME280;9136;48.822;7.966;2022-12-18T12:58:59;101520.13;;;-4.26;100.00
18022;BME280;9136;48.822;7.966;2022-12-18T13:01:56;101493.59;;;-4.44;100.00
18022;BME280;9136;48.822;7.966;2022-12-18T13:04:52;101530.25;;;-4.29;100.00
18022;BME280;9136;48.822;7.966;2022-12-18T13:07:51;101501.09;;;-4.31;100.00
18022;BME280;9136;48.822;7.966;2022-12-18T13:10:42;101506.78;;;-4.37;100.00
18022;BME280;9136;48.822;7.966;2022-12-18T13:13:48;101496.25;;;-4.43;100.00
18022;BME280;9136;48.822;7.966;2022-12-18T13:16:37;101487.38;;;-4.49;100.00
18022;BME280;9136;48.822;7.966;2022-12-18T13:19:28;101476.97;;;-4.52;100.00
18022;BME280;9136;48.822;7.966;2022-12-18T13:22:21;101502.09;;;-4.45;100.00
18022;BME280;9136;48.822;7.966;2022-12-18T13:25:33;101503.13;;;-4.42;100.00
18022;BME280;9136;48.822;7.966;2022-12-18T13:28:50;101454.41;;;-4.59;100.00
18022;BME280;9136;48.822;7.966;2022-12-18T13:32:01;101492.94;;;-4.40;100.00
18022;BME280;9136;48.822;7.966;2022-12-18T13:34:51;101476.25;;;-4.50;100.00
18022;BME280;9136;48.822;7.966;2022-12-18T13:38:02;101463.66;;;-4.63;100.00
18022;BME280;9136;48.822;7.966;2022-12-18T13:41:24;101460.47;;;-4.57;100.00
18022;BME280;9136;48.822;7.966;2022-12-18T13:44:30;101467.09;;;-4.63;100.00
18022;BME280;9136;48.822;7.966;2022-12-18T13:47:26;101457.47;;;-4.67;100.00
18022;BME280;9136;48.822;7.966;2022-12-18T13:50:23;101459.16;;;-4.67;100.00
18022;BME280;9136;48.822;7.966;2022-12-18T13:53:19;101485.75;;;-4.47;100.00
18022;BME280;9136;48.822;7.966;2022-12-18T13:56:08;101452.66;;;-4.61;100.00
18022;BME280;9136;48.822;7.966;2022-12-18T13:59:16;101458.72;;;-4.58;100.00
18022;BME280;9136;48.822;7.966;2022-12-18T14:02:13;101438.06;;;-4.79;100.00
18022;BME280;9136;48.822;7.966;2022-12-18T14:05:01;101479.97;;;-4.61;100.00
18022;BME280;9136;48.822;7.966;2022-12-18T14:07:49;101449.75;;;-4.84;100.00
18022;BME280;9136;48.822;7.966;2022-12-18T14:10:40;101458.44;;;-4.82;100.00
18022;BME280;9136;48.822;7.966;2022-12-18T14:13:31;101445.75;;;-4.79;100.00
18022;BME280;9136;48.822;7.966;2022-12-18T14:16:29;101480.63;;;-4.65;100.00
18022;BME280;9136;48.822;7.966;2022-12-18T14:19:26;101476.22;;;-4.68;100.00
18022;BME280;9136;48.822;7.966;2022-12-18T14:22:21;101474.22;;;-4.73;100.00
18022;BME280;9136;48.822;7.966;2022-12-18T14:25:17;101458.31;;;-4.84;100.00
18022;BME280;9136;48.822;7.966;2022-12-18T14:28:13;101498.56;;;-4.65;100.00
18022;BME280;9136;48.822;7.966;2022-12-18T14:31:21;101468.50;;;-4.85;100.00
18022;BME280;9136;48.822;7.966;2022-12-18T14:34:16;101475.31;;;-4.86;100.00
18022;BME280;9136;48.822;7.966;2022-12-18T14:37:04;101441.41;;;-4.98;100.00
18022;BME280;9136;48.822;7.966;2022-12-18T14:39:55;101456.53;;;-5.03;100.00
18022;BME280;9136;48.822;7.966;2022-12-18T14:42:44;101488.41;;;-4.98;100.00
18022;BME280;9136;48.822;7.966;2022-12-18T14:45:35;101464.81;;;-5.08;100.00
18022;BME280;9136;48.822;7.966;2022-12-18T14:48:34;101455.13;;;-5.14;100.00
18022;BME280;9136;48.822;7.966;2022-12-18T14:51:25;101472.72;;;-5.04;100.00
18022;BME280;9136;48.822;7.966;2022-12-18T14:54:16;101445.63;;;-5.16;100.00
18022;BME280;9136;48.822;7.966;2022-12-18T14:57:06;101453.63;;;-5.27;100.00
18022;BME280;9136;48.822;7.966;2022-12-18T15:00:04;101455.41;;;-5.26;100.00
18022;BME280;9136;48.822;7.966;2022-12-18T15:02:56;101433.41;;;-5.38;100.00
18022;BME280;9136;48.822;7.966;2022-12-18T15:05:47;101434.50;;;-5.33;100.00
18022;BME280;9136;48.822;7.966;2022-12-18T15:08:47;101456.06;;;-5.30;100.00
18022;BME280;9136;48.822;7.966;2022-12-18T15:11:45;101493.28;;;-5.02;100.00
18022;BME280;9136;48.822;7.966;2022-12-18T15:14:39;101461.38;;;-5.09;100.00
18022;BME280;9136;48.822;7.966;2022-12-18T15:17:33;101483.34;;;-4.96;100.00
18022;BME280;9136;48.822;7.966;2022-12-18T15:20:22;101493.75;;;-4.93;100.00
18022;BME280;9136;48.822;7.966;2022-12-18T15:23:19;101452.84;;;-5.26;100.00
18022;BME280;9136;48.822;7.966;2022-12-18T15:26:15;101460.38;;;-5.29;100.00
18022;BME280;9136;48.822;7.966;2022-12-18T15:29:15;101442.19;;;-5.33;100.00
18022;BME280;9136;48.822;7.966;2022-12-18T15:32:15;101444.94;;;-5.30;100.00
18022;BME280;9136;48.822;7.966;2022-12-18T15:35:15;101454.94;;;-5.35;100.00
18022;BME280;9136;48.822;7.966;2022-12-18T15:38:13;101489.16;;;-5.16;100.00
18022;BME280;9136;48.822;7.966;2022-12-18T15:41:11;101457.56;;;-5.33;100.00
18022;BME280;9136;48.822;7.966;2022-12-18T15:44:14;101475.16;;;-5.23;100.00
18022;BME280;9136;48.822;7.966;2022-12-18T15:47:12;101460.06;;;-5.35;100.00
18022;BME280;9136;48.822;7.966;2022-12-18T15:50:04;101439.91;;;-5.45;100.00
18022;BME280;9136;48.822;7.966;2022-12-18T15:52:54;101452.84;;;-5.42;100.00
18022;BME280;9136;48.822;7.966;2022-12-18T15:55:44;101473.41;;;-5.24;100.00
18022;BME280;9136;48.822;7.966;2022-12-18T15:58:51;101499.47;;;-5.15;100.00
18022;BME280;9136;48.822;7.966;2022-12-18T16:01:41;101462.84;;;-5.30;100.00
18022;BME280;9136;48.822;7.966;2022-12-18T16:04:29;101450.28;;;-5.42;100.00
18022;BME280;9136;48.822;7.966;2022-12-18T16:07:25;101468.69;;;-5.33;100.00